createdAt,value
2017-08-29T00:01:29.431Z,9.80
2017-08-29T00:03:56.980Z,11.40
2017-08-29T00:06:24.547Z,11.67
2017-08-29T00:08:52.179Z,11.70
2017-08-29T00:11:19.743Z,9.80
2017-08-29T00:13:47.288Z,11.00
2017-08-29T00:16:14.862Z,12.27
2017-08-29T00:18:42.433Z,10.87
2017-08-29T00:21:10.003Z,13.10
2017-08-29T00:23:37.608Z,12.70
2017-08-29T00:26:05.178Z,11.00
2017-08-29T00:28:32.743Z,10.67
2017-08-29T00:31:00.340Z,10.23
2017-08-29T00:33:27.899Z,12.00
2017-08-29T00:35:55.463Z,10.87
2017-08-29T00:38:23.064Z,10.87
2017-08-29T00:40:50.608Z,10.00
2017-08-29T00:43:18.182Z,12.20
2017-08-29T00:45:45.797Z,11.00
2017-08-29T00:48:13.340Z,11.17
2017-08-29T00:50:40.904Z,11.10
2017-08-29T00:53:08.519Z,11.30
2017-08-29T00:55:36.073Z,10.20
2017-08-29T00:58:03.642Z,11.00
2017-08-29T01:00:31.416Z,11.00
2017-08-29T01:02:58.973Z,9.97
2017-08-29T01:05:26.548Z,8.73
2017-08-29T01:07:54.171Z,10.67
2017-08-29T01:10:21.781Z,10.77
2017-08-29T01:12:49.374Z,9.43
2017-08-29T01:15:17.007Z,12.30
2017-08-29T01:17:44.592Z,11.37
2017-08-29T01:20:12.176Z,10.50
2017-08-29T01:22:39.883Z,10.10
2017-08-29T01:25:07.483Z,12.00
2017-08-29T01:27:35.059Z,9.60
2017-08-29T01:30:02.691Z,11.33
2017-08-29T01:32:30.290Z,10.80
2017-08-29T01:34:57.911Z,9.83
2017-08-29T01:37:25.547Z,12.10
2017-08-29T01:39:53.128Z,10.27
2017-08-29T01:42:20.729Z,11.20
2017-08-29T01:44:48.303Z,9.93
2017-08-29T01:47:15.889Z,8.07
2017-08-29T01:49:43.455Z,9.97
2017-08-29T01:52:11.102Z,11.17
2017-08-29T01:54:38.688Z,9.90
2017-08-29T01:57:06.266Z,10.27
2017-08-29T01:59:33.900Z,12.20
2017-08-29T02:02:01.494Z,11.27
2017-08-29T02:04:29.097Z,9.90
2017-08-29T02:06:56.677Z,9.53
2017-08-29T02:09:24.295Z,11.00
2017-08-29T02:11:51.889Z,10.20
2017-08-29T02:14:19.477Z,8.67
2017-08-29T02:16:47.049Z,10.20
2017-08-29T02:19:14.895Z,9.03
2017-08-29T02:21:42.468Z,10.60
2017-08-29T02:24:10.098Z,9.77
2017-08-29T02:26:37.686Z,10.43
2017-08-29T02:29:05.996Z,9.70
2017-08-29T02:31:33.568Z,8.87
2017-08-29T02:34:01.112Z,10.90
2017-08-29T02:36:28.705Z,9.50
2017-08-29T02:38:56.261Z,10.97
2017-08-29T02:41:23.846Z,10.80
2017-08-29T02:43:51.399Z,9.77
2017-08-29T02:46:18.968Z,10.50
2017-08-29T02:48:46.557Z,11.40
2017-08-29T02:51:14.103Z,10.00
2017-08-29T02:53:41.703Z,11.40
2017-08-29T02:56:09.259Z,9.20
2017-08-29T02:58:36.894Z,10.53
2017-08-29T03:01:04.498Z,9.80
2017-08-29T03:03:32.067Z,10.03
2017-08-29T03:05:59.671Z,9.33
2017-08-29T03:08:27.231Z,9.20
2017-08-29T03:10:54.789Z,9.77
2017-08-29T03:13:22.404Z,8.67
2017-08-29T03:15:49.983Z,8.70
2017-08-29T03:18:17.551Z,8.80
2017-08-29T03:20:45.155Z,8.30
2017-08-29T03:23:12.715Z,8.77
2017-08-29T03:25:40.273Z,9.13
2017-08-29T03:28:07.878Z,8.90
2017-08-29T03:30:35.435Z,8.03
2017-08-29T03:33:02.985Z,7.90
2017-08-29T03:35:30.572Z,8.33
2017-08-29T03:37:58.164Z,9.00
2017-08-29T03:40:25.721Z,8.33
2017-08-29T03:42:53.331Z,8.60
2017-08-29T03:45:20.900Z,10.73
2017-08-29T03:47:48.467Z,8.27
2017-08-29T03:50:16.063Z,8.73
2017-08-29T03:52:43.655Z,10.67
2017-08-29T03:55:11.222Z,8.93
2017-08-29T03:57:38.813Z,9.03
2017-08-29T04:00:06.413Z,8.57
2017-08-29T04:02:33.961Z,9.50
2017-08-29T04:05:01.558Z,8.70
2017-08-29T04:07:29.104Z,9.67
2017-08-29T04:09:56.706Z,9.40
2017-08-29T04:12:24.315Z,10.33
2017-08-29T04:14:51.913Z,9.50
2017-08-29T04:17:19.468Z,9.10
2017-08-29T04:19:47.070Z,10.20
2017-08-29T04:22:14.630Z,9.23
2017-08-29T04:24:42.204Z,10.00
2017-08-29T04:27:09.793Z,9.10
2017-08-29T04:29:37.335Z,9.87
2017-08-29T04:32:04.901Z,9.97
2017-08-29T04:34:32.496Z,12.37
2017-08-29T04:37:00.058Z,10.80
2017-08-29T04:39:27.621Z,12.63
2017-08-29T04:41:55.203Z,11.50
2017-08-29T04:44:23.543Z,9.63
2017-08-29T04:46:51.099Z,10.80
2017-08-29T04:49:18.689Z,10.50
2017-08-29T04:51:46.247Z,9.27
2017-08-29T04:54:13.800Z,9.70
2017-08-29T04:56:41.396Z,9.23
2017-08-29T04:59:08.962Z,9.03
2017-08-29T05:01:36.569Z,8.10
2017-08-29T05:04:04.464Z,8.17
2017-08-29T05:06:32.053Z,9.63
2017-08-29T05:08:59.658Z,11.20
2017-08-29T05:11:27.241Z,9.63
2017-08-29T05:13:54.827Z,11.30
2017-08-29T05:16:22.402Z,11.77
2017-08-29T05:18:50.010Z,11.27
2017-08-29T05:21:17.611Z,10.20
2017-08-29T05:23:45.179Z,12.50
2017-08-29T05:26:12.773Z,10.60
2017-08-29T05:28:40.355Z,9.50
2017-08-29T05:31:07.970Z,10.33
2017-08-29T05:33:35.579Z,12.17
2017-08-29T05:36:03.159Z,10.73
2017-08-29T05:38:30.725Z,10.50
2017-08-29T05:40:58.441Z,10.83
2017-08-29T05:43:26.001Z,10.30
2017-08-29T05:45:53.561Z,10.90
2017-08-29T05:48:21.144Z,11.13
2017-08-29T05:50:48.781Z,10.20
2017-08-29T05:53:16.346Z,10.67
2017-08-29T05:55:43.936Z,10.90
2017-08-29T05:58:11.497Z,10.00
2017-08-29T06:00:39.063Z,10.70
2017-08-29T06:03:06.674Z,10.17
2017-08-29T06:05:34.234Z,9.57
2017-08-29T06:08:01.781Z,11.17
2017-08-29T06:10:29.400Z,10.57
2017-08-29T06:12:56.956Z,10.37
2017-08-29T06:15:24.518Z,9.60
2017-08-29T06:17:52.132Z,9.13
2017-08-29T06:20:19.705Z,9.80
2017-08-29T06:22:47.277Z,9.40
2017-08-29T06:25:14.879Z,9.23
2017-08-29T06:27:42.483Z,9.73
2017-08-29T06:30:10.055Z,9.23
2017-08-29T06:32:37.649Z,8.80
2017-08-29T06:35:05.206Z,9.90
2017-08-29T06:37:32.775Z,9.90
2017-08-29T06:40:00.392Z,10.73
2017-08-29T06:42:27.959Z,9.30
2017-08-29T06:44:55.516Z,9.60
2017-08-29T06:47:23.124Z,9.97
2017-08-29T06:49:50.718Z,9.50
2017-08-29T06:52:18.281Z,9.87
2017-08-29T06:54:45.881Z,8.87
2017-08-29T06:57:13.438Z,9.60
2017-08-29T06:59:41.060Z,9.47
2017-08-29T07:02:08.651Z,8.77
2017-08-29T07:04:36.227Z,8.50
2017-08-29T07:07:03.781Z,8.37
2017-08-29T07:09:31.371Z,8.90
2017-08-29T07:11:58.988Z,8.30
2017-08-29T07:14:26.567Z,8.97
2017-08-29T07:16:54.935Z,9.10
2017-08-29T07:19:22.504Z,8.87
2017-08-29T07:21:50.062Z,8.80
2017-08-29T07:24:17.649Z,9.00
2017-08-29T07:26:45.196Z,9.20
2017-08-29T07:29:13.536Z,9.20
2017-08-29T07:31:41.175Z,7.40
2017-08-29T07:34:08.742Z,7.90
2017-08-29T07:36:36.330Z,9.07
2017-08-29T07:39:03.949Z,8.83
2017-08-29T07:41:31.516Z,9.13
2017-08-29T07:43:59.080Z,8.87
2017-08-29T07:46:26.679Z,7.83
2017-08-29T07:48:54.272Z,8.87
2017-08-29T07:51:21.821Z,8.63
2017-08-29T07:53:50.177Z,8.10
2017-08-29T07:56:17.758Z,8.67
2017-08-29T07:58:45.356Z,7.77
2017-08-29T08:01:12.949Z,8.47
2017-08-29T08:03:40.501Z,8.60
2017-08-29T08:06:08.065Z,7.70
2017-08-29T08:08:35.859Z,7.80
2017-08-29T08:11:03.431Z,8.17
2017-08-29T08:13:31.010Z,8.77
2017-08-29T08:15:58.621Z,7.90
2017-08-29T08:18:26.199Z,8.80
2017-08-29T08:20:53.798Z,7.37
2017-08-29T08:23:21.399Z,7.50
2017-08-29T08:25:48.966Z,7.93
2017-08-29T08:28:16.556Z,7.07
2017-08-29T08:30:44.161Z,8.37
2017-08-29T08:33:11.713Z,7.77
2017-08-29T08:35:39.261Z,7.50
2017-08-29T08:38:06.854Z,7.43
2017-08-29T08:40:34.414Z,6.70
2017-08-29T08:43:01.975Z,7.10
2017-08-29T08:45:29.568Z,7.17
2017-08-29T08:47:57.130Z,6.53
2017-08-29T08:50:24.685Z,7.80
2017-08-29T08:52:52.270Z,7.87
2017-08-29T08:55:19.811Z,8.27
2017-08-29T08:57:47.378Z,8.00
2017-08-29T09:00:14.971Z,8.63
2017-08-29T09:02:42.555Z,7.00
2017-08-29T09:05:10.110Z,7.73
2017-08-29T09:07:37.691Z,7.63
2017-08-29T09:10:05.260Z,7.70
2017-08-29T09:12:32.812Z,8.07
2017-08-29T09:15:00.408Z,7.77
2017-08-29T09:17:27.976Z,8.10
2017-08-29T09:19:55.541Z,7.30
2017-08-29T09:22:23.126Z,7.90
2017-08-29T09:24:50.692Z,8.20
2017-08-29T09:27:18.263Z,8.17
2017-08-29T09:29:45.864Z,8.27
2017-08-29T09:32:13.417Z,7.33
2017-08-29T09:34:40.991Z,7.80
2017-08-29T09:37:08.578Z,7.40
2017-08-29T09:39:36.133Z,6.57
2017-08-29T09:42:03.774Z,7.40
2017-08-29T09:44:31.362Z,7.73
2017-08-29T09:46:58.922Z,6.83
2017-08-29T09:49:28.336Z,8.80
2017-08-29T09:51:55.942Z,7.70
2017-08-29T09:54:23.509Z,7.77
2017-08-29T09:56:51.061Z,6.67
2017-08-29T09:59:18.659Z,7.60
2017-08-29T10:01:46.209Z,8.10
2017-08-29T10:04:13.753Z,6.50
2017-08-29T10:06:41.351Z,7.13
2017-08-29T10:09:08.915Z,8.60
2017-08-29T10:11:36.487Z,7.07
2017-08-29T10:14:04.093Z,7.17
2017-08-29T10:16:31.664Z,7.70
2017-08-29T10:18:59.210Z,8.00
2017-08-29T10:21:26.802Z,6.80
2017-08-29T10:23:54.361Z,8.50
2017-08-29T10:26:21.920Z,7.00
2017-08-29T10:28:49.554Z,7.20
2017-08-29T10:31:17.116Z,7.27
2017-08-29T10:33:44.674Z,6.80
2017-08-29T10:36:12.292Z,6.87
2017-08-29T10:38:39.855Z,7.30
2017-08-29T10:41:07.417Z,6.87
2017-08-29T10:43:35.015Z,7.30
2017-08-29T10:46:02.580Z,7.60
2017-08-29T10:48:30.153Z,7.97
2017-08-29T10:50:57.779Z,8.00
2017-08-29T10:53:25.359Z,7.03
2017-08-29T10:55:52.932Z,7.20
2017-08-29T10:58:20.525Z,5.83
2017-08-29T11:00:48.063Z,5.07
2017-08-29T11:03:15.631Z,6.77
2017-08-29T11:05:43.246Z,5.67
2017-08-29T11:08:10.803Z,7.60
2017-08-29T11:10:38.358Z,6.97
2017-08-29T11:13:05.959Z,4.90
2017-08-29T11:15:33.528Z,6.90
2017-08-29T11:18:01.090Z,6.40
2017-08-29T11:20:28.714Z,8.03
2017-08-29T11:22:56.287Z,7.50
2017-08-29T11:25:23.855Z,6.93
2017-08-29T11:27:51.469Z,6.90
2017-08-29T11:30:19.044Z,8.27
2017-08-29T11:32:46.626Z,7.50
2017-08-29T11:35:14.254Z,6.90
2017-08-29T11:37:41.841Z,7.57
2017-08-29T11:40:09.398Z,7.00
2017-08-29T11:42:37.007Z,5.10
2017-08-29T11:45:05.335Z,5.70
2017-08-29T11:47:32.916Z,7.03
2017-08-29T11:50:00.540Z,7.20
2017-08-29T11:52:28.123Z,6.70
2017-08-29T11:54:55.689Z,7.03
2017-08-29T11:57:23.302Z,6.57
2017-08-29T11:59:50.874Z,8.17
2017-08-29T12:02:18.437Z,6.53
2017-08-29T12:04:46.026Z,6.20
2017-08-29T12:07:13.623Z,7.10
2017-08-29T12:09:41.193Z,6.97
2017-08-29T12:12:08.788Z,4.67
2017-08-29T12:14:36.351Z,5.83
2017-08-29T12:17:03.910Z,6.53
2017-08-29T12:19:31.502Z,6.47
2017-08-29T12:21:59.086Z,6.80
2017-08-29T12:24:26.650Z,7.37
2017-08-29T12:26:54.250Z,6.37
2017-08-29T12:29:21.796Z,5.70
2017-08-29T12:31:49.349Z,6.50
2017-08-29T12:34:16.937Z,7.10
2017-08-29T12:36:44.484Z,6.00
2017-08-29T12:39:12.050Z,6.40
2017-08-29T12:41:39.647Z,6.13
2017-08-29T12:44:07.219Z,5.90
2017-08-29T12:46:34.774Z,6.43
2017-08-29T12:49:02.366Z,7.07
2017-08-29T12:51:29.921Z,5.67
2017-08-29T12:53:57.471Z,6.50
2017-08-29T12:56:25.088Z,6.97
2017-08-29T12:58:52.645Z,5.23
2017-08-29T13:01:20.245Z,6.33
2017-08-29T13:03:47.819Z,6.20
2017-08-29T13:06:15.406Z,6.43
2017-08-29T13:08:42.971Z,6.80
2017-08-29T13:11:10.557Z,6.00
2017-08-29T13:13:38.113Z,5.37
2017-08-29T13:16:05.678Z,5.30
2017-08-29T13:18:33.264Z,6.50
2017-08-29T13:21:00.835Z,5.97
2017-08-29T13:23:28.413Z,7.13
2017-08-29T13:25:56.033Z,6.17
2017-08-29T13:28:23.590Z,6.37
2017-08-29T13:30:51.149Z,6.90
2017-08-29T13:33:18.762Z,5.73
2017-08-29T13:35:46.321Z,7.63
2017-08-29T13:38:13.869Z,5.33
2017-08-29T13:40:41.450Z,7.10
2017-08-29T13:43:09.103Z,6.10
2017-08-29T13:45:36.657Z,6.73
2017-08-29T13:48:04.241Z,6.40
2017-08-29T13:50:31.787Z,6.40
2017-08-29T13:52:59.346Z,5.70
2017-08-29T13:55:26.930Z,6.53
2017-08-29T13:57:54.482Z,6.87
2017-08-29T14:00:22.050Z,7.10
2017-08-29T14:02:49.643Z,6.00
2017-08-29T14:05:17.203Z,7.20
2017-08-29T14:07:44.770Z,6.30
2017-08-29T14:10:12.354Z,6.37
2017-08-29T14:12:39.928Z,6.87
2017-08-29T14:15:07.486Z,7.23
2017-08-29T14:17:35.062Z,7.10
2017-08-29T14:20:02.646Z,7.10
2017-08-29T14:22:30.213Z,6.43
2017-08-29T14:24:58.552Z,7.20
2017-08-29T14:27:26.114Z,5.80
2017-08-29T14:29:53.667Z,6.30
2017-08-29T14:32:21.247Z,7.87
2017-08-29T14:34:48.816Z,7.43
2017-08-29T14:37:16.364Z,6.93
2017-08-29T14:39:43.967Z,6.47
2017-08-29T14:42:11.534Z,6.80
2017-08-29T14:44:39.104Z,7.10
2017-08-29T14:47:18.755Z,6.43
2017-08-29T14:49:46.306Z,6.10
2017-08-29T14:52:13.865Z,7.73
2017-08-29T14:54:41.455Z,5.87
2017-08-29T14:57:10.519Z,6.67
2017-08-29T14:59:38.229Z,6.23
2017-08-29T15:02:05.866Z,6.37
2017-08-29T15:04:33.422Z,7.23
2017-08-29T15:07:01.692Z,6.53
2017-08-29T15:09:29.457Z,6.73
2017-08-29T15:11:57.588Z,6.80
2017-08-29T15:14:25.479Z,7.20
2017-08-29T15:16:53.100Z,7.73
2017-08-29T15:19:20.663Z,6.73
2017-08-29T15:21:48.993Z,7.57
2017-08-29T15:24:16.585Z,7.30
2017-08-29T15:26:44.174Z,6.40
2017-08-29T15:29:11.728Z,6.43
2017-08-29T15:31:40.095Z,6.70
2017-08-29T15:34:07.662Z,7.40
2017-08-29T15:36:35.242Z,7.00
2017-08-29T15:39:02.859Z,6.73
2017-08-29T15:41:30.407Z,6.97
2017-08-29T15:43:57.970Z,6.27
2017-08-29T15:46:25.557Z,6.80
2017-08-29T15:48:53.909Z,6.90
2017-08-29T15:51:21.470Z,7.07
2017-08-29T15:53:49.072Z,6.77
2017-08-29T15:56:16.620Z,6.60
2017-08-29T15:58:44.175Z,5.73
2017-08-29T16:01:11.760Z,7.43
2017-08-29T16:03:39.319Z,7.00
2017-08-29T16:06:06.867Z,6.70
2017-08-29T16:08:34.468Z,5.70
2017-08-29T16:11:02.023Z,6.87
2017-08-29T16:13:29.568Z,7.50
2017-08-29T16:15:57.146Z,6.77
2017-08-29T16:18:24.711Z,6.80
2017-08-29T16:20:52.286Z,6.73
2017-08-29T16:23:19.863Z,6.77
2017-08-29T16:25:47.422Z,6.80
2017-08-29T16:28:15.000Z,5.97
2017-08-29T16:30:42.587Z,5.90
2017-08-29T16:33:10.149Z,7.03
2017-08-29T16:35:37.687Z,7.07
2017-08-29T16:38:05.263Z,5.90
2017-08-29T16:40:32.821Z,6.13
2017-08-29T16:43:01.257Z,6.80
2017-08-29T16:45:28.835Z,7.00
2017-08-29T16:47:56.415Z,7.03
2017-08-29T16:50:23.973Z,6.20
2017-08-29T16:52:51.566Z,6.63
2017-08-29T16:55:19.124Z,6.20
2017-08-29T16:57:46.690Z,7.10
2017-08-29T17:00:14.267Z,5.90
2017-08-29T17:02:41.982Z,6.80
2017-08-29T17:05:09.536Z,6.90
2017-08-29T17:07:37.140Z,6.53
2017-08-29T17:10:04.694Z,8.00
2017-08-29T17:12:32.265Z,7.17
2017-08-29T17:14:59.869Z,7.60
2017-08-29T17:17:27.437Z,7.37
2017-08-29T17:19:55.004Z,7.10
2017-08-29T17:22:22.580Z,7.40
2017-08-29T17:24:50.895Z,7.20
2017-08-29T17:27:18.456Z,6.90
2017-08-29T17:29:46.055Z,6.63
2017-08-29T17:32:14.579Z,7.70
2017-08-29T17:34:44.338Z,6.90
2017-08-29T17:37:13.789Z,7.30
2017-08-29T17:39:41.344Z,7.70
2017-08-29T17:42:08.896Z,8.80
2017-08-29T17:44:36.496Z,8.17
2017-08-29T17:47:04.060Z,7.50
2017-08-29T17:49:31.621Z,7.33
2017-08-29T17:51:59.213Z,8.00
2017-08-29T17:54:26.769Z,7.80
2017-08-29T17:56:54.344Z,7.40
2017-08-29T17:59:21.934Z,7.30
2017-08-29T18:01:49.489Z,7.70
2017-08-29T18:04:17.069Z,8.03
2017-08-29T18:06:44.684Z,7.77
2017-08-29T18:09:12.254Z,8.90
2017-08-29T18:11:39.798Z,7.90
2017-08-29T18:14:07.395Z,8.13
2017-08-29T18:16:34.949Z,8.03
2017-08-29T18:19:02.515Z,8.20
2017-08-29T18:21:30.095Z,7.87
2017-08-29T18:23:57.657Z,8.30
2017-08-29T18:26:25.221Z,9.00
2017-08-29T18:28:52.822Z,8.23
2017-08-29T18:31:20.391Z,8.60
2017-08-29T18:33:47.967Z,9.50
2017-08-29T18:36:15.559Z,8.40
2017-08-29T18:38:43.116Z,9.27
2017-08-29T18:41:10.682Z,9.30
2017-08-29T18:43:38.265Z,8.30
2017-08-29T18:46:05.845Z,8.90
2017-08-29T18:48:33.421Z,8.10
2017-08-29T18:51:01.014Z,7.97
2017-08-29T18:53:28.577Z,8.70
2017-08-29T18:55:56.122Z,8.10
2017-08-29T18:58:23.719Z,9.40
2017-08-29T19:00:51.307Z,8.40
2017-08-29T19:03:18.883Z,9.17
2017-08-29T19:05:46.460Z,9.60
2017-08-29T19:08:14.021Z,9.80
2017-08-29T19:10:41.580Z,9.73
2017-08-29T19:13:09.193Z,9.30
2017-08-29T19:15:36.742Z,9.37
2017-08-29T19:18:04.329Z,9.00
2017-08-29T19:20:31.910Z,9.30
2017-08-29T19:22:59.473Z,9.10
2017-08-29T19:25:27.030Z,9.07
2017-08-29T19:27:54.631Z,8.87
2017-08-29T19:30:22.184Z,9.50
2017-08-29T19:32:49.781Z,11.27
2017-08-29T19:35:17.374Z,10.50
2017-08-29T19:37:44.934Z,10.47
2017-08-29T19:40:12.519Z,8.90
2017-08-29T19:42:40.115Z,9.67
2017-08-29T19:45:07.930Z,10.10
2017-08-29T19:47:35.545Z,9.77
2017-08-29T19:50:03.139Z,10.27
2017-08-29T19:52:30.715Z,9.13
2017-08-29T19:54:59.063Z,10.20
2017-08-29T19:57:26.653Z,10.57
2017-08-29T19:59:54.983Z,9.93
2017-08-29T20:02:22.825Z,9.87
2017-08-29T20:04:50.407Z,9.23
2017-08-29T20:07:17.985Z,10.50
2017-08-29T20:09:45.539Z,9.17
2017-08-29T20:12:13.138Z,8.87
2017-08-29T20:14:40.701Z,9.70
2017-08-29T20:17:08.261Z,9.70
2017-08-29T20:19:35.868Z,9.63
2017-08-29T20:22:03.420Z,10.07
2017-08-29T20:24:30.990Z,10.53
2017-08-29T20:26:58.578Z,9.90
2017-08-29T20:29:26.135Z,10.20
2017-08-29T20:31:53.703Z,10.03
2017-08-29T20:34:21.306Z,10.10
2017-08-29T20:36:48.869Z,9.87
2017-08-29T20:39:16.434Z,9.40
2017-08-29T20:41:44.039Z,9.50
2017-08-29T20:44:11.598Z,11.40
2017-08-29T20:46:39.148Z,12.07
2017-08-29T20:49:06.728Z,11.37
2017-08-29T20:51:34.285Z,11.17
2017-08-29T20:54:01.832Z,11.40
2017-08-29T20:56:29.425Z,10.80
2017-08-29T20:58:56.984Z,11.43
2017-08-29T21:01:24.542Z,10.90
2017-08-29T21:03:52.143Z,13.70
2017-08-29T21:06:19.698Z,10.27
2017-08-29T21:08:47.266Z,10.40
2017-08-29T21:11:14.870Z,10.33
2017-08-29T21:13:42.434Z,10.47
2017-08-29T21:16:10.764Z,11.50
2017-08-29T21:18:38.362Z,12.00
2017-08-29T21:21:05.908Z,12.37
2017-08-29T21:23:33.450Z,12.07
2017-08-29T21:26:01.038Z,11.60
2017-08-29T21:28:28.592Z,11.83
2017-08-29T21:30:56.157Z,12.07
2017-08-29T21:33:23.749Z,11.03
2017-08-29T21:35:51.314Z,12.00
2017-08-29T21:38:20.982Z,11.87
2017-08-29T21:40:50.025Z,10.77
2017-08-29T21:43:17.586Z,11.57
2017-08-29T21:45:45.194Z,11.23
2017-08-29T21:48:12.792Z,11.47
2017-08-29T21:50:40.349Z,10.43
2017-08-29T21:53:07.922Z,10.77
2017-08-29T21:55:35.527Z,12.20
2017-08-29T21:58:03.086Z,9.77
2017-08-29T22:00:30.658Z,12.10
2017-08-29T22:02:58.257Z,11.30
2017-08-29T22:05:25.813Z,11.10
2017-08-29T22:07:53.371Z,10.40
2017-08-29T22:10:20.977Z,11.73
2017-08-29T22:12:48.531Z,10.70
2017-08-29T22:15:16.083Z,11.47
2017-08-29T22:17:43.683Z,10.00
2017-08-29T22:20:11.255Z,10.87
2017-08-29T22:22:38.817Z,11.00
2017-08-29T22:25:06.413Z,11.70
2017-08-29T22:27:33.994Z,11.47
2017-08-29T22:30:01.564Z,11.70
2017-08-29T22:32:29.174Z,10.27
2017-08-29T22:34:56.746Z,11.33
2017-08-29T22:37:24.321Z,12.23
2017-08-29T22:39:51.900Z,11.03
2017-08-29T22:42:19.443Z,11.27
2017-08-29T22:44:47.007Z,10.80
2017-08-29T22:47:14.583Z,10.70
2017-08-29T22:49:42.159Z,10.73
2017-08-29T22:52:09.726Z,9.93
2017-08-29T22:54:37.311Z,11.67
2017-08-29T22:57:04.881Z,10.50
2017-08-29T22:59:32.456Z,10.33
2017-08-29T23:02:01.814Z,9.67
2017-08-29T23:04:31.012Z,10.97
2017-08-29T23:06:59.342Z,10.47
2017-08-29T23:09:26.928Z,11.67
2017-08-29T23:11:54.485Z,12.60
2017-08-29T23:14:22.062Z,11.13
2017-08-29T23:16:50.435Z,10.87
2017-08-29T23:19:17.984Z,10.97
2017-08-29T23:21:45.549Z,10.93
2017-08-29T23:24:13.132Z,12.67
2017-08-29T23:26:40.684Z,12.80
2017-08-29T23:29:08.260Z,11.83
2017-08-29T23:31:35.843Z,12.00
2017-08-29T23:34:03.401Z,12.53
2017-08-29T23:36:30.969Z,13.20
2017-08-29T23:38:58.583Z,13.60
2017-08-29T23:41:26.142Z,11.93
2017-08-29T23:43:53.709Z,12.77
2017-08-29T23:46:21.302Z,13.00
2017-08-29T23:48:48.857Z,12.47
2017-08-29T23:51:16.415Z,12.80
2017-08-29T23:53:43.995Z,12.27
2017-08-29T23:56:11.548Z,11.90
2017-08-29T23:58:39.099Z,13.23
